Time;durP1;ratioP1;P1;durP2;ratioP2;P2;SDS_P1;SDS_P2;PMS_P1;PMS_P2;Temp;Humidity;BMP_temperature;BMP_pressure;BME280_temperature;BME280_humidity;BME280_pressure;Samples;Min_cycle;Max_cycle;Signal;HPM_P1;HPM_P2
2022/10/14 00:01:45;;;;;;;;;;;;;;;18.71;65.09;100974.83;2385352;73;50777;-76
2022/10/14 00:04:46;;;;;;;;;;;;;;;18.71;65.16;100969.47;2324428;74;51791;-76
2022/10/14 00:07:48;;;;;;;;;;;;;;;18.72;65.14;100977.32;2351668;74;50750;-76
2022/10/14 00:10:49;;;;;;;;;;;;;;;18.73;65.28;100974.16;2384502;74;51294;-76
2022/10/14 00:13:53;;;;;;;;;;;;;;;18.70;65.18;100978.03;2384289;74;51562;-77
2022/10/14 00:16:55;;;;;;;;;;;;;;;18.68;65.49;100969.83;2351463;74;49835;-76
2022/10/14 00:19:56;;;;;;;;;;;;;;;18.69;65.32;100968.81;2351825;74;50241;-76
2022/10/14 00:22:58;;;;;;;;;;;;;;;18.67;65.64;100956.91;2351556;74;50773;-77
2022/10/14 00:25:59;;;;;;;;;;;;;;;18.67;65.50;100962.27;2351363;74;51430;-76
2022/10/14 00:29:01;;;;;;;;;;;;;;;18.67;65.60;100962.27;2311662;74;52663;-76
2022/10/14 00:32:02;;;;;;;;;;;;;;;18.68;65.59;100965.81;2375196;74;50682;-76
2022/10/14 00:35:05;;;;;;;;;;;;;;;18.67;65.67;100962.27;2374899;74;51559;-77
2022/10/14 00:38:07;;;;;;;;;;;;;;;18.65;65.69;100955.41;2356492;74;50349;-76
2022/10/14 00:41:10;;;;;;;;;;;;;;;18.65;65.70;100956.75;2332809;76;49641;-77
2022/10/14 00:44:16;;;;;;;;;;;;;;;18.66;65.53;100953.08;2328650;76;51574;-76
2022/10/14 00:47:18;;;;;;;;;;;;;;;18.69;65.35;100955.41;2329087;76;50400;-77
2022/10/14 00:50:19;;;;;;;;;;;;;;;18.66;65.70;100953.91;2329053;76;50355;-76
2022/10/14 00:53:21;;;;;;;;;;;;;;;18.68;65.50;100953.75;2328702;76;50585;-76
2022/10/14 00:56:24;;;;;;;;;;;;;;;18.70;65.54;100957.06;2359859;74;51498;-76
2022/10/14 00:59:25;;;;;;;;;;;;;;;18.68;65.40;100952.41;2393280;74;50411;-74
2022/10/14 01:02:27;;;;;;;;;;;;;;;18.69;65.34;100954.06;2397840;74;50239;-74
2022/10/14 01:05:30;;;;;;;;;;;;;;;18.66;65.34;100949.89;2349321;74;50141;-74
2022/10/14 01:08:33;;;;;;;;;;;;;;;18.64;65.36;100945.20;2385833;73;50837;-74
2022/10/14 01:11:40;;;;;;;;;;;;;;;18.65;65.46;100951.39;2373210;75;50817;-73
2022/10/14 01:14:58;;;;;;;;;;;;;;;18.65;65.47;100953.59;2377001;74;50285;-74
2022/10/14 01:18:03;;;;;;;;;;;;;;;18.65;65.40;100947.38;2378707;74;23522;-75
2022/10/14 01:21:15;;;;;;;;;;;;;;;18.66;65.61;100943.70;2378562;75;50704;-75
2022/10/14 01:24:37;;;;;;;;;;;;;;;18.63;65.45;100940.04;2378296;75;51592;-74
2022/10/14 01:27:42;;;;;;;;;;;;;;;18.66;65.51;100941.02;2378092;74;51457;-75
2022/10/14 01:30:46;;;;;;;;;;;;;;;18.62;65.74;100936.50;2378654;75;51484;-75
2022/10/14 01:33:48;;;;;;;;;;;;;;;18.63;65.70;100941.38;2377396;74;51594;-75
2022/10/14 01:36:59;;;;;;;;;;;;;;;18.62;65.75;100936.50;2379353;74;50416;-75
2022/10/14 01:40:02;;;;;;;;;;;;;;;18.64;65.65;100935.00;2377095;74;50750;-75
2022/10/14 01:43:04;;;;;;;;;;;;;;;18.62;65.66;100937.02;2351350;74;51275;-75
2022/10/14 01:46:06;;;;;;;;;;;;;;;18.61;65.68;100931.34;2384300;74;50407;-75
2022/10/14 01:49:09;;;;;;;;;;;;;;;18.64;65.73;100926.95;2379186;74;51563;-76
2022/10/14 01:52:15;;;;;;;;;;;;;;;18.62;65.86;100926.30;2378060;74;51643;-76
2022/10/14 01:55:17;;;;;;;;;;;;;;;18.61;65.95;100931.34;2354664;75;51028;-76
2022/10/14 01:58:19;;;;;;;;;;;;;;;18.61;66.02;100936.70;2378746;75;50769;-75
2022/10/14 02:01:21;;;;;;;;;;;;;;;18.59;65.94;100932.02;2378684;75;50409;-75
2022/10/14 02:04:22;;;;;;;;;;;;;;;18.57;66.17;100934.03;2355187;75;50741;-75
2022/10/14 02:07:26;;;;;;;;;;;;;;;18.56;66.05;100929.69;2354950;74;49482;-75
2022/10/14 02:10:38;;;;;;;;;;;;;;;18.58;65.93;100933.03;2385576;74;50436;-75
2022/10/14 02:13:53;;;;;;;;;;;;;;;18.57;65.95;100928.16;2384385;74;50516;-75
2022/10/14 02:17:02;;;;;;;;;;;;;;;18.54;66.35;100922.33;2382928;74;51504;-75
2022/10/14 02:20:05;;;;;;;;;;;;;;;18.54;66.04;100921.81;2351432;74;51015;-75
2022/10/14 02:23:09;;;;;;;;;;;;;;;18.58;66.07;100934.38;2384235;74;51544;-75
2022/10/14 02:26:10;;;;;;;;;;;;;;;18.56;66.12;100929.17;2384445;74;51601;-75
2022/10/14 02:29:12;;;;;;;;;;;;;;;18.59;65.92;100940.88;2352100;74;50709;-75
2022/10/14 02:32:14;;;;;;;;;;;;;;;18.57;66.22;100936.70;2352149;74;50217;-75
2022/10/14 02:35:16;;;;;;;;;;;;;;;18.57;66.26;100944.75;2384661;74;50428;-75
2022/10/14 02:38:18;;;;;;;;;;;;;;;18.57;66.40;100934.85;2393639;74;52421;-75
2022/10/14 02:41:20;;;;;;;;;;;;;;;18.52;66.35;100931.04;2389448;74;51615;-75
2022/10/14 02:44:22;;;;;;;;;;;;;;;18.55;66.36;100936.04;2352124;74;51377;-75
2022/10/14 02:47:23;;;;;;;;;;;;;;;18.57;66.13;100932.17;2382344;74;50734;-75
2022/10/14 02:50:25;;;;;;;;;;;;;;;18.57;66.23;100931.34;2386620;74;51524;-75
2022/10/14 02:53:27;;;;;;;;;;;;;;;18.55;66.57;100930.20;2353187;74;50713;-75
2022/10/14 02:56:28;;;;;;;;;;;;;;;18.59;66.07;100930.67;2355108;74;52457;-75
2022/10/14 02:59:30;;;;;;;;;;;;;;;18.58;65.99;100929.84;2356301;75;50832;-75
2022/10/14 03:02:31;;;;;;;;;;;;;;;18.60;65.89;100932.33;2342598;76;50439;-75
2022/10/14 03:05:33;;;;;;;;;;;;;;;18.60;65.89;100932.33;2337245;75;50101;-75
2022/10/14 03:08:34;;;;;;;;;;;;;;;18.63;65.85;100933.34;2365002;74;52774;-75
2022/10/14 03:11:36;;;;;;;;;;;;;;;18.64;65.69;100928.30;2350865;75;50736;-75
2022/10/14 03:14:38;;;;;;;;;;;;;;;18.65;65.65;100917.89;2378147;75;51530;-75
2022/10/14 03:17:39;;;;;;;;;;;;;;;18.61;65.62;100904.53;2378646;75;51551;-76
2022/10/14 03:20:43;;;;;;;;;;;;;;;18.59;65.73;100903.88;2378253;74;53416;-75
2022/10/14 03:23:45;;;;;;;;;;;;;;;18.58;65.85;100898.20;2378433;75;51528;-75
2022/10/14 03:26:46;;;;;;;;;;;;;;;18.61;65.57;100901.34;2378379;74;49989;-75
2022/10/14 03:29:48;;;;;;;;;;;;;;;18.63;65.54;100902.52;2378139;74;50188;-74
2022/10/14 03:32:50;;;;;;;;;;;;;;;18.64;65.43;100905.52;2382343;74;51050;-75
2022/10/14 03:35:51;;;;;;;;;;;;;;;18.62;65.51;100897.64;2378395;75;51640;-75
2022/10/14 03:38:53;;;;;;;;;;;;;;;18.60;65.85;100902.37;2379705;74;51528;-75
2022/10/14 03:41:55;;;;;;;;;;;;;;;18.59;65.66;100907.89;2397327;73;51510;-75
2022/10/14 03:44:56;;;;;;;;;;;;;;;18.57;65.48;100893.31;2376671;74;51846;-75
2022/10/14 03:47:58;;;;;;;;;;;;;;;18.57;65.51;100896.51;2365775;75;50453;-76
2022/10/14 03:50:59;;;;;;;;;;;;;;;18.61;65.86;100899.17;2378214;74;50262;-75
2022/10/14 03:54:01;;;;;;;;;;;;;;;18.65;66.01;100899.13;2378265;75;50730;-75
2022/10/14 03:57:02;;;;;;;;;;;;;;;18.71;65.95;100899.78;2378596;75;51500;-75
2022/10/14 04:00:04;;;;;;;;;;;;;;;18.74;65.91;100902.61;2378329;74;51507;-75
2022/10/14 04:03:06;;;;;;;;;;;;;;;18.76;65.84;100889.91;2378556;75;50787;-75
2022/10/14 04:06:08;;;;;;;;;;;;;;;18.76;65.83;100889.39;2378205;75;51575;-75
2022/10/14 04:09:09;;;;;;;;;;;;;;;18.76;65.81;100894.75;2355891;74;52572;-75
2022/10/14 04:12:11;;;;;;;;;;;;;;;18.76;65.80;100886.71;2306135;76;51537;-75
2022/10/14 04:15:13;;;;;;;;;;;;;;;18.72;65.80;100880.82;2328331;76;51576;-75
2022/10/14 04:18:14;;;;;;;;;;;;;;;18.72;65.85;100884.02;2306076;76;51543;-75
2022/10/14 04:21:16;;;;;;;;;;;;;;;18.71;65.73;100885.04;2306244;76;52538;-76
2022/10/14 04:24:17;;;;;;;;;;;;;;;18.71;65.89;100881.02;2305956;76;50777;-75
2022/10/14 04:27:19;;;;;;;;;;;;;;;18.72;65.88;100886.69;2328347;76;50406;-76
2022/10/14 04:30:21;;;;;;;;;;;;;;;18.73;65.85;100884.36;2328459;76;50730;-75
2022/10/14 04:33:22;;;;;;;;;;;;;;;18.73;65.80;100877.66;2305877;76;50082;-75
2022/10/14 04:36:24;;;;;;;;;;;;;;;18.71;65.82;100887.20;2328436;76;51547;-76
2022/10/14 04:39:25;;;;;;;;;;;;;;;18.71;65.81;100874.31;2390629;74;51504;-76
2022/10/14 04:42:27;;;;;;;;;;;;;;;18.72;65.79;100879.99;2397871;74;51530;-76
2022/10/14 04:45:28;;;;;;;;;;;;;;;18.72;66.03;100871.95;2349711;74;52461;-75
2022/10/14 04:48:30;;;;;;;;;;;;;;;18.70;65.84;100865.45;2384189;73;50357;-75
2022/10/14 04:51:32;;;;;;;;;;;;;;;18.70;66.01;100862.77;2378604;75;50419;-76
2022/10/14 04:54:33;;;;;;;;;;;;;;;18.77;66.03;100869.60;2379441;75;50692;-75
2022/10/14 04:57:35;;;;;;;;;;;;;;;18.77;65.98;100866.92;2355388;75;50083;-75
2022/10/14 05:00:36;;;;;;;;;;;;;;;18.78;66.18;100864.59;2355394;75;50445;-75
2022/10/14 05:03:38;;;;;;;;;;;;;;;18.79;66.14;100863.56;2378427;75;50718;-74
2022/10/14 05:06:39;;;;;;;;;;;;;;;18.77;65.84;100853.52;2378469;74;51570;-74
2022/10/14 05:09:41;;;;;;;;;;;;;;;18.73;66.13;100856.22;2326173;74;49932;-74
2022/10/14 05:12:43;;;;;;;;;;;;;;;18.71;66.31;100860.91;2355015;75;51556;-73
2022/10/14 05:15:44;;;;;;;;;;;;;;;18.71;66.88;100865.77;2378566;75;51514;-74
2022/10/14 05:18:46;;;;;;;;;;;;;;;18.73;66.84;100868.28;2378574;75;50357;-74
2022/10/14 05:21:47;;;;;;;;;;;;;;;18.71;66.63;100863.59;2355403;75;49547;-74
2022/10/14 05:24:49;;;;;;;;;;;;;;;18.72;66.44;100859.38;2355281;75;50748;-74
2022/10/14 05:27:52;;;;;;;;;;;;;;;18.71;66.42;100864.94;2355438;75;50379;-74
2022/10/14 05:30:54;;;;;;;;;;;;;;;18.68;66.29;100859.42;2378819;75;51629;-74
2022/10/14 05:33:56;;;;;;;;;;;;;;;18.67;66.14;100858.25;2355018;75;50165;-73
2022/10/14 05:36:57;;;;;;;;;;;;;;;18.65;66.04;100860.27;2355601;74;51567;-73
2022/10/14 05:39:59;;;;;;;;;;;;;;;18.67;65.94;100862.27;2364510;74;50730;-74
2022/10/14 05:43:00;;;;;;;;;;;;;;;18.67;66.10;100853.72;2390656;74;51498;-74
2022/10/14 05:46:02;;;;;;;;;;;;;;;18.68;66.17;100855.91;2372174;74;50815;-74
2022/10/14 05:49:04;;;;;;;;;;;;;;;18.65;66.25;100850.89;2357485;75;50354;-74
2022/10/14 05:52:06;;;;;;;;;;;;;;;18.68;66.22;100846.02;2378307;74;51489;-72
2022/10/14 05:55:08;;;;;;;;;;;;;;;18.71;65.98;100848.34;2377817;75;52292;-74
2022/10/14 05:58:10;;;;;;;;;;;;;;;18.69;65.82;100854.89;2374292;74;51002;-74
2022/10/14 06:01:11;;;;;;;;;;;;;;;18.65;63.33;100852.23;2353417;74;50462;-73
2022/10/14 06:04:19;;;;;;;;;;;;;;;18.66;64.86;100848.05;2313043;76;50094;-74
2022/10/14 06:07:21;;;;;;;;;;;;;;;18.63;64.39;100850.26;2369231;73;50697;-73
2022/10/14 06:10:22;;;;;;;;;;;;;;;18.60;64.07;100853.27;2355465;75;51008;-74
2022/10/14 06:13:24;;;;;;;;;;;;;;;18.59;64.35;100856.97;2357854;74;51601;-73
2022/10/14 06:16:26;;;;;;;;;;;;;;;18.59;64.22;100858.31;2365458;73;50701;-75
2022/10/14 06:19:27;;;;;;;;;;;;;;;18.58;64.10;100860.67;2353178;74;50942;-74
2022/10/14 06:22:29;;;;;;;;;;;;;;;18.58;64.04;100858.00;2386589;74;51535;-74
2022/10/14 06:25:31;;;;;;;;;;;;;;;18.60;64.16;100857.28;2356155;74;50646;-74
2022/10/14 06:28:32;;;;;;;;;;;;;;;18.66;64.04;100855.25;2397774;74;51504;-73
2022/10/14 06:31:34;;;;;;;;;;;;;;;18.72;63.81;100851.34;2377354;74;51395;-74
2022/10/14 06:34:35;;;;;;;;;;;;;;;18.75;63.68;100854.20;2387336;73;50981;-74
2022/10/14 06:37:37;;;;;;;;;;;;;;;18.76;63.66;100851.03;2395165;73;51434;-73
2022/10/14 06:40:39;;;;;;;;;;;;;;;18.75;63.66;100855.53;2429202;73;51436;-73
2022/10/14 06:43:40;;;;;;;;;;;;;;;18.74;63.65;100855.19;2429070;73;51522;-74
2022/10/14 06:46:42;;;;;;;;;;;;;;;18.73;63.62;100858.89;2375001;74;49604;-74
2022/10/14 06:49:43;;;;;;;;;;;;;;;18.71;63.66;100856.38;2351762;75;51849;-74
2022/10/14 06:52:45;;;;;;;;;;;;;;;18.69;63.72;100854.37;2378194;74;51503;-74
2022/10/14 06:55:47;;;;;;;;;;;;;;;18.65;63.95;100858.45;2378455;75;51557;-75
2022/10/14 06:58:48;;;;;;;;;;;;;;;18.68;63.80;100864.78;2378161;74;50858;-73
2022/10/14 07:01:50;;;;;;;;;;;;;;;18.69;63.75;100866.44;2378139;74;50413;-75
2022/10/14 07:04:52;;;;;;;;;;;;;;;18.68;63.72;100870.66;2378406;75;51512;-74
2022/10/14 07:07:53;;;;;;;;;;;;;;;18.67;63.75;100868.97;2378629;75;51534;-74
2022/10/14 07:10:55;;;;;;;;;;;;;;;18.65;63.77;100865.15;2382437;74;51431;-75
2022/10/14 07:13:56;;;;;;;;;;;;;;;18.66;63.79;100861.95;2378439;75;50537;-75
2022/10/14 07:16:59;;;;;;;;;;;;;;;18.64;63.89;100873.35;2387510;74;50436;-75
2022/10/14 07:20:00;;;;;;;;;;;;;;;18.66;63.81;100873.50;2397046;74;51582;-75
2022/10/14 07:23:02;;;;;;;;;;;;;;;18.62;63.97;100881.56;2352450;75;51024;-76
2022/10/14 07:26:04;;;;;;;;;;;;;;;18.60;63.95;100879.59;2371443;75;51469;-75
2022/10/14 07:29:05;;;;;;;;;;;;;;;18.65;63.82;100879.89;2350783;75;50630;-74
2022/10/14 07:32:07;;;;;;;;;;;;;;;18.69;63.66;100879.02;2371008;75;51499;-75
2022/10/14 07:35:08;;;;;;;;;;;;;;;18.70;63.56;100877.98;2324062;75;52681;-75
2022/10/14 07:38:10;;;;;;;;;;;;;;;18.71;63.50;100875.66;2351096;75;51472;-75
2022/10/14 07:41:16;;;;;;;;;;;;;;;18.71;63.49;100871.63;2371943;75;50790;-76
2022/10/14 07:44:19;;;;;;;;;;;;;;;18.69;63.51;100890.56;2351504;75;51460;-75
2022/10/14 07:47:21;;;;;;;;;;;;;;;18.67;63.54;100894.44;2355450;74;49595;-74
2022/10/14 07:50:22;;;;;;;;;;;;;;;18.66;63.59;100888.76;2352432;74;50445;-75
2022/10/14 07:53:24;;;;;;;;;;;;;;;18.65;63.65;100893.29;2355187;74;50747;-74
2022/10/14 07:56:26;;;;;;;;;;;;;;;18.66;63.73;100868.66;2353415;74;50311;-74
2022/10/14 07:59:27;;;;;;;;;;;;;;;18.69;63.59;100872.31;2386622;74;51501;-75
2022/10/14 08:02:29;;;;;;;;;;;;;;;18.78;63.42;100882.02;2351720;73;50276;-74
2022/10/14 08:05:30;;;;;;;;;;;;;;;18.80;63.26;100892.03;2378781;75;50417;-74
2022/10/14 08:08:32;;;;;;;;;;;;;;;18.82;63.16;100891.34;2355993;75;50649;-74
2022/10/14 08:11:34;;;;;;;;;;;;;;;18.85;63.08;100876.75;2355616;74;50116;-75
2022/10/14 08:14:35;;;;;;;;;;;;;;;18.82;63.14;100879.80;2387019;74;51768;-74
2022/10/14 08:17:37;;;;;;;;;;;;;;;18.80;63.20;100882.64;2392105;73;51454;-74
2022/10/14 08:20:38;;;;;;;;;;;;;;;18.81;63.29;100874.95;2355016;75;51430;-75
2022/10/14 08:23:40;;;;;;;;;;;;;;;18.76;63.86;100880.01;2378854;75;50380;-73
2022/10/14 08:26:43;;;;;;;;;;;;;;;18.79;63.67;100882.84;2378947;75;50475;-74
2022/10/14 08:29:45;;;;;;;;;;;;;;;18.76;63.94;100874.64;2377242;74;50449;-74
2022/10/14 08:32:46;;;;;;;;;;;;;;;18.75;64.30;100872.10;2379002;75;50723;-74
2022/10/14 08:35:48;;;;;;;;;;;;;;;18.77;64.19;100872.28;2382422;73;52683;-74
2022/10/14 08:38:50;;;;;;;;;;;;;;;18.82;63.81;100875.26;2375528;73;51528;-75
2022/10/14 08:42:09;;;;;;;;;;;;;;;18.84;63.69;100863.86;2404672;73;50445;-74
2022/10/14 08:45:13;;;;;;;;;;;;;;;18.81;63.74;100858.03;2389600;74;50451;-75
2022/10/14 08:48:17;;;;;;;;;;;;;;;18.78;63.89;100858.37;2349613;74;51030;-75
2022/10/14 08:51:18;;;;;;;;;;;;;;;18.74;63.95;100865.08;2376727;73;51769;-75
2022/10/14 08:54:24;;;;;;;;;;;;;;;18.73;63.95;100862.91;2395567;74;51497;-77
2022/10/14 08:57:26;;;;;;;;;;;;;;;18.72;63.97;100854.53;2398931;73;51590;-75
2022/10/14 09:00:28;;;;;;;;;;;;;;;18.72;63.95;100854.53;2344670;75;51016;-75
2022/10/14 09:03:33;;;;;;;;;;;;;;;18.70;63.92;100850.70;2379078;75;51522;-75
2022/10/14 09:06:35;;;;;;;;;;;;;;;18.71;63.90;100853.70;2377422;74;50420;-75
2022/10/14 09:09:51;;;;;;;;;;;;;;;18.70;63.87;100845.83;2367665;74;50664;-75
2022/10/14 09:12:52;;;;;;;;;;;;;;;18.69;63.95;100848.19;2377645;75;23082;-74
2022/10/14 09:15:55;;;;;;;;;;;;;;;18.70;63.98;100847.16;2379097;75;51408;-73
2022/10/14 09:18:57;;;;;;;;;;;;;;;18.74;63.92;100852.51;2378381;74;51788;-74
2022/10/14 09:21:59;;;;;;;;;;;;;;;18.74;63.92;100852.51;2355953;75;50434;-75
2022/10/14 09:25:01;;;;;;;;;;;;;;;18.74;63.97;100853.02;2346541;75;51110;-75
2022/10/14 09:28:02;;;;;;;;;;;;;;;18.75;63.99;100854.20;2379172;75;51557;-75
2022/10/14 09:31:04;;;;;;;;;;;;;;;18.78;63.97;100850.33;2379272;75;51365;-75
2022/10/14 09:34:06;;;;;;;;;;;;;;;18.77;63.90;100845.98;2379153;74;51616;-75
2022/10/14 09:37:26;;;;;;;;;;;;;;;18.75;63.94;100848.84;2383130;74;50298;-75
2022/10/14 09:40:32;;;;;;;;;;;;;;;18.76;63.87;100847.84;2396392;74;51484;-75
2022/10/14 09:43:34;;;;;;;;;;;;;;;18.78;63.82;100840.45;2388380;74;51789;-74
2022/10/14 09:46:35;;;;;;;;;;;;;;;18.79;63.79;100837.27;2379623;75;50723;-73
2022/10/14 09:49:38;;;;;;;;;;;;;;;18.77;63.80;100830.73;2358123;74;50128;-74
2022/10/14 09:52:39;;;;;;;;;;;;;;;18.78;63.72;100826.20;2386637;74;50384;-74
2022/10/14 09:55:48;;;;;;;;;;;;;;;18.77;63.79;100825.88;2386626;74;50628;-74
2022/10/14 09:58:52;;;;;;;;;;;;;;;18.77;63.75;100831.24;2386824;74;50366;-74
2022/10/14 10:01:54;;;;;;;;;;;;;;;18.79;63.67;100828.71;2387256;74;22396;-74
2022/10/14 10:04:56;;;;;;;;;;;;;;;18.79;63.66;100826.03;2386814;74;51509;-74
2022/10/14 10:08:05;;;;;;;;;;;;;;;18.79;63.63;100819.84;2361834;74;51463;-74
2022/10/14 10:11:09;;;;;;;;;;;;;;;18.78;63.67;100813.66;2376031;74;50720;-74
2022/10/14 10:14:24;;;;;;;;;;;;;;;18.78;63.69;100812.80;2375687;74;51140;-74
2022/10/14 10:17:26;;;;;;;;;;;;;;;18.75;63.71;100809.97;2407786;74;50849;-74
2022/10/14 10:20:32;;;;;;;;;;;;;;;18.75;63.70;100808.62;2407931;73;50662;-74
2022/10/14 10:23:34;;;;;;;;;;;;;;;18.75;63.72;100809.97;2409972;74;50685;-74
2022/10/14 10:26:36;;;;;;;;;;;;;;;18.72;63.70;100811.13;2407323;74;50768;-73
2022/10/14 10:29:37;;;;;;;;;;;;;;;18.76;63.62;100808.97;2407157;73;50775;-74
2022/10/14 10:32:57;;;;;;;;;;;;;;;18.76;63.56;100808.97;2375829;74;51660;-73
2022/10/14 10:36:09;;;;;;;;;;;;;;;18.77;63.54;100806.61;2403950;73;51572;-73
2022/10/14 10:39:18;;;;;;;;;;;;;;;18.78;63.47;100800.73;2366460;74;50174;-73
2022/10/14 10:42:38;;;;;;;;;;;;;;;18.78;63.49;100796.23;2391731;74;52343;-74
2022/10/14 10:45:41;;;;;;;;;;;;;;;18.78;63.51;100792.69;2391247;74;22905;-73
2022/10/14 10:48:48;;;;;;;;;;;;;;;18.80;63.48;100804.89;2393051;74;50794;-74
2022/10/14 10:52:01;;;;;;;;;;;;;;;18.80;63.44;100804.07;2395144;74;24268;-74
2022/10/14 10:55:09;;;;;;;;;;;;;;;18.76;63.49;100800.93;2391299;74;50295;-74
2022/10/14 10:58:16;;;;;;;;;;;;;;;18.76;63.49;100799.59;2390823;74;50778;-74
2022/10/14 11:01:20;;;;;;;;;;;;;;;18.75;63.39;100797.91;2391071;74;50217;-75
2022/10/14 11:04:23;;;;;;;;;;;;;;;18.76;63.47;100790.72;2372102;74;50997;-74
2022/10/14 11:14:15;;;;;;;;;;;;;;;18.76;63.36;100786.70;2398195;74;22310;-75
2022/10/14 11:17:33;;;;;;;;;;;;;;;18.71;63.48;100787.20;2377195;74;49701;-78
2022/10/14 11:20:36;;;;;;;;;;;;;;;18.70;63.68;100785.52;2299082;77;50484;-77
2022/10/14 11:23:42;;;;;;;;;;;;;;;18.71;63.46;100784.01;2298588;77;50482;-78
2022/10/14 11:27:02;;;;;;;;;;;;;;;18.76;63.48;100778.14;2298573;76;50967;-78
2022/10/14 11:30:17;;;;;;;;;;;;;;;18.76;63.37;100780.00;2299309;77;50731;-78
2022/10/14 11:33:20;;;;;;;;;;;;;;;18.71;63.45;100775.14;2299012;77;51532;-78
2022/10/14 11:36:35;;;;;;;;;;;;;;;18.69;63.49;100769.13;2304429;75;51506;-78
2022/10/14 11:39:41;;;;;;;;;;;;;;;18.75;63.51;100762.20;2303833;76;50766;-78
2022/10/14 11:42:45;;;;;;;;;;;;;;;18.75;63.45;100755.02;2273133;77;50890;-78
2022/10/14 11:45:51;;;;;;;;;;;;;;;18.79;63.42;100759.01;2298950;76;50778;-78
2022/10/14 11:48:57;;;;;;;;;;;;;;;18.76;63.44;100752.68;2299207;77;51551;-78
2022/10/14 11:52:03;;;;;;;;;;;;;;;18.76;63.47;100747.83;2299390;77;51643;-78
2022/10/14 11:55:10;;;;;;;;;;;;;;;18.74;63.41;100751.98;2321067;75;49616;-78
2022/10/14 11:58:16;;;;;;;;;;;;;;;18.70;63.38;100743.97;2378841;75;50509;-78
2022/10/14 12:01:18;;;;;;;;;;;;;;;18.72;63.52;100743.29;2378129;75;50103;-78
2022/10/14 12:04:21;;;;;;;;;;;;;;;18.73;63.49;100736.94;2378988;75;51599;-78
2022/10/14 12:07:24;;;;;;;;;;;;;;;18.68;63.51;100733.45;2376646;74;52569;-78
2022/10/14 12:10:27;;;;;;;;;;;;;;;18.70;63.43;100725.20;2387351;74;50291;-78
2022/10/14 12:13:33;;;;;;;;;;;;;;;18.69;63.48;100732.94;2384630;74;51639;-78
2022/10/14 12:16:34;;;;;;;;;;;;;;;18.69;63.52;100731.59;2384939;74;51470;-77
2022/10/14 12:19:36;;;;;;;;;;;;;;;18.68;63.52;100732.63;2384798;74;51590;-78
2022/10/14 12:22:37;;;;;;;;;;;;;;;18.68;63.50;100725.92;2351708;74;49563;-78
2022/10/14 12:25:47;;;;;;;;;;;;;;;18.69;63.50;100726.23;2384855;74;50222;-78
2022/10/14 12:28:48;;;;;;;;;;;;;;;18.65;63.46;100723.10;2383577;74;50405;-78
2022/10/14 12:31:51;;;;;;;;;;;;;;;18.69;63.09;100716.86;2385273;74;50417;-78
2022/10/14 12:34:56;;;;;;;;;;;;;;;18.65;62.84;100724.92;2351960;74;51043;-78
2022/10/14 12:37:59;;;;;;;;;;;;;;;18.67;62.62;100718.87;2376896;74;51594;-78
2022/10/14 12:41:20;;;;;;;;;;;;;;;18.63;62.58;100705.53;2398126;74;51548;-78
2022/10/14 12:44:22;;;;;;;;;;;;;;;18.62;62.62;100715.91;2299119;77;50489;-76
2022/10/14 12:47:31;;;;;;;;;;;;;;;18.64;62.13;100708.53;2273864;77;51029;-78
2022/10/14 12:50:29;;;;;;;;;;;;;;;18.71;62.44;100707.62;2298818;77;22748;-78
2022/10/14 12:53:30;;;;;;;;;;;;;;;18.84;61.98;100708.88;2299322;76;50443;-77
2022/10/14 12:56:36;;;;;;;;;;;;;;;18.82;61.99;100702.34;2299686;76;50358;-77
2022/10/14 12:59:38;;;;;;;;;;;;;;;18.84;61.98;100693.62;2272150;76;52524;-77
2022/10/14 13:02:45;;;;;;;;;;;;;;;18.86;61.96;100688.08;2298341;76;50290;-76
2022/10/14 13:05:47;;;;;;;;;;;;;;;18.84;61.99;100688.25;2292604;77;50783;-76
2022/10/14 13:09:07;;;;;;;;;;;;;;;18.83;62.07;100685.27;2309806;75;51536;-77
2022/10/14 13:12:10;;;;;;;;;;;;;;;18.86;62.02;100682.20;2273429;77;50066;-76
2022/10/14 13:15:30;;;;;;;;;;;;;;;18.88;62.06;100683.34;2334603;75;50824;-76
2022/10/14 13:18:35;;;;;;;;;;;;;;;18.92;61.94;100680.12;2378717;75;51571;-77
2022/10/14 13:21:38;;;;;;;;;;;;;;;18.79;62.22;100677.25;2378830;75;51602;-77
2022/10/14 13:24:44;;;;;;;;;;;;;;;18.77;62.37;100675.77;2378490;75;51544;-76
2022/10/14 13:27:47;;;;;;;;;;;;;;;18.75;62.54;100671.92;2377566;74;22257;-76
2022/10/14 13:30:54;;;;;;;;;;;;;;;18.76;62.56;100665.56;2378352;74;51539;-76
2022/10/14 13:33:57;;;;;;;;;;;;;;;18.77;62.69;100659.69;2378380;75;51636;-76
2022/10/14 13:37:12;;;;;;;;;;;;;;;18.74;62.98;100660.86;2380658;74;49521;-76
2022/10/14 13:40:35;;;;;;;;;;;;;;;18.73;63.06;100663.22;2394856;74;51491;-77
2022/10/14 13:43:37;;;;;;;;;;;;;;;18.77;62.85;100657.83;2398272;73;51587;-77
2022/10/14 13:46:41;;;;;;;;;;;;;;;18.95;61.57;100663.34;2398731;74;52308;-77
2022/10/14 13:49:45;;;;;;;;;;;;;;;18.95;61.57;100659.32;2379418;74;50948;-77
2022/10/14 13:52:48;;;;;;;;;;;;;;;18.90;61.78;100662.55;2400029;73;22271;-75
2022/10/14 13:55:53;;;;;;;;;;;;;;;18.88;62.13;100661.41;2398176;74;50480;-76
2022/10/14 13:58:55;;;;;;;;;;;;;;;19.02;62.09;100666.95;2398289;74;51613;-76
2022/10/14 14:01:57;;;;;;;;;;;;;;;19.34;61.44;100658.52;2377548;74;50969;-76
2022/10/14 14:04:59;;;;;;;;;;;;;;;19.34;61.64;100659.00;2398047;73;50308;-76
2022/10/14 14:08:01;;;;;;;;;;;;;;;19.24;62.05;100653.95;2393164;74;51532;-75
2022/10/14 14:11:05;;;;;;;;;;;;;;;19.18;62.41;100657.87;2398626;74;51372;-76
2022/10/14 14:14:10;;;;;;;;;;;;;;;19.12;62.50;100664.83;2398528;74;22779;-75
2022/10/14 14:17:14;;;;;;;;;;;;;;;19.44;61.73;100658.70;2398141;73;51600;-76
2022/10/14 14:20:17;;;;;;;;;;;;;;;19.37;61.83;100657.30;2394708;73;51384;-76
2022/10/14 14:23:18;;;;;;;;;;;;;;;19.23;62.17;100656.29;2395565;74;51550;-76
2022/10/14 14:26:20;;;;;;;;;;;;;;;19.14;62.48;100662.80;2348597;74;51740;-76
2022/10/14 14:29:23;;;;;;;;;;;;;;;19.07;62.55;100665.38;2369932;75;51485;-76
2022/10/14 14:32:31;;;;;;;;;;;;;;;19.02;62.61;100653.55;2363178;73;50439;-76
2022/10/14 14:35:33;;;;;;;;;;;;;;;18.98;62.72;100653.58;2394911;73;50803;-77
2022/10/14 14:38:35;;;;;;;;;;;;;;;18.93;62.77;100653.65;2375374;74;49538;-77
2022/10/14 14:41:37;;;;;;;;;;;;;;;18.92;62.86;100649.28;2376340;74;52473;-76
2022/10/14 14:44:38;;;;;;;;;;;;;;;19.70;60.64;100649.63;2375969;74;51656;-78
2022/10/14 14:47:40;;;;;;;;;;;;;;;19.41;61.45;100642.48;2407230;74;50649;-75
2022/10/14 14:50:42;;;;;;;;;;;;;;;19.30;61.83;100633.59;2375315;74;51032;-75
2022/10/14 14:53:45;;;;;;;;;;;;;;;19.22;62.09;100635.03;2375029;74;50265;-76
2022/10/14 14:56:48;;;;;;;;;;;;;;;19.15;62.30;100629.06;2406592;74;51577;-76
2022/10/14 14:59:51;;;;;;;;;;;;;;;19.08;62.42;100628.14;2405181;73;51696;-75
2022/10/14 15:03:00;;;;;;;;;;;;;;;19.04;62.58;100621.50;2375243;73;50321;-77
2022/10/14 15:06:02;;;;;;;;;;;;;;;18.99;62.65;100614.53;2398491;74;51491;-76
2022/10/14 15:09:08;;;;;;;;;;;;;;;18.95;62.50;100614.56;2396007;74;50685;-76
2022/10/14 15:12:17;;;;;;;;;;;;;;;18.93;62.46;100615.25;2397363;74;51504;-76
2022/10/14 15:15:32;;;;;;;;;;;;;;;18.92;62.53;100613.09;2377142;74;49616;-76
2022/10/14 15:18:31;;;;;;;;;;;;;;;18.90;62.61;100609.75;2377108;74;22651;-76
2022/10/14 15:21:33;;;;;;;;;;;;;;;18.88;62.65;100617.17;2397914;74;51510;-76
2022/10/14 15:24:35;;;;;;;;;;;;;;;18.86;62.73;100617.87;2397747;74;50799;-76
2022/10/14 15:27:39;;;;;;;;;;;;;;;18.84;62.75;100601.64;2350097;74;51006;-75
2022/10/14 15:30:42;;;;;;;;;;;;;;;18.83;62.72;100598.62;2398083;73;50785;-76
2022/10/14 15:33:44;;;;;;;;;;;;;;;18.86;62.68;100597.76;2389558;74;50791;-76
2022/10/14 15:36:45;;;;;;;;;;;;;;;18.82;62.75;100597.80;2402107;73;51560;-76
2022/10/14 15:39:48;;;;;;;;;;;;;;;18.82;62.74;100592.43;2353062;74;50072;-77
2022/10/14 15:42:50;;;;;;;;;;;;;;;18.80;62.81;100592.30;2395952;74;50795;-76
2022/10/14 15:49:15;;;;;;;;;;;;;;;18.78;62.91;100581.77;2380455;74;22232;-76
2022/10/14 15:52:17;;;;;;;;;;;;;;;18.80;62.94;100585.59;2375005;74;51353;-76